createdAt,value
2019-05-25T01:36:01.739Z,20.05
2019-05-25T01:38:33.852Z,19.23
2019-05-25T01:41:07.588Z,18.37
2019-05-25T01:43:41.106Z,17.55
2019-05-25T01:46:14.986Z,17.55
2019-05-25T01:48:46.940Z,18.35
2019-05-25T08:17:49.245Z,9.08
2019-05-25T08:20:22.186Z,9.65
2019-05-25T08:22:53.843Z,9.40
2019-05-25T08:25:25.363Z,9.90
2019-05-25T08:27:56.763Z,9.83
2019-05-25T08:30:28.003Z,9.83
2019-05-25T08:32:59.085Z,9.75
2019-05-25T08:35:31.043Z,10.98
2019-05-25T08:38:03.642Z,10.35
2019-05-25T08:40:36.742Z,10.05
2019-05-25T08:43:07.703Z,10.80
2019-05-25T08:45:38.662Z,10.40
2019-05-25T08:48:11.264Z,9.68
2019-05-25T08:50:42.506Z,10.82
2019-05-25T08:53:14.784Z,10.18
2019-05-25T08:56:07.638Z,9.70
2019-05-25T08:58:47.988Z,10.45
2019-05-25T09:01:12.999Z,10.55
2019-05-25T09:03:44.299Z,11.35
2019-05-25T09:06:15.761Z,12.13
2019-05-25T09:09:51.498Z,13.93
2019-05-25T09:12:21.969Z,10.28
2019-05-25T09:14:59.970Z,9.90
2019-05-25T09:17:30.489Z,10.93
2019-05-25T09:22:30.727Z,10.03
2019-05-25T09:27:30.580Z,9.90
2019-05-25T09:30:08.789Z,10.13
2019-05-25T09:32:40.272Z,9.45
2019-05-25T09:37:47.791Z,10.13
2019-05-25T09:40:18.445Z,8.85
2019-05-25T09:45:22.266Z,10.65
2019-05-25T09:47:52.919Z,10.82
2019-05-25T09:50:23.336Z,10.95
2019-05-25T09:52:53.692Z,9.73
2019-05-25T09:55:24.335Z,10.15
2019-05-25T10:00:24.457Z,9.28
2019-05-25T10:02:55.134Z,9.98
2019-05-25T10:05:25.797Z,9.88
2019-05-25T10:07:56.802Z,9.98
2019-05-25T10:10:29.109Z,9.60
2019-05-25T10:12:59.791Z,10.58
2019-05-25T10:15:30.369Z,9.80
2019-05-25T10:18:00.731Z,10.08
2019-05-25T10:20:31.392Z,9.63
2019-05-25T10:25:38.835Z,9.63
2019-05-25T10:28:09.578Z,9.43
2019-05-25T10:30:41.967Z,9.53
2019-05-25T10:33:12.656Z,10.05
2019-05-25T10:35:48.898Z,9.55
2019-05-25T10:38:16.454Z,9.20
2019-05-25T10:40:52.003Z,9.18
2019-05-25T10:43:23.810Z,9.33
2019-05-25T10:45:55.023Z,8.83
2019-05-25T10:48:27.249Z,8.58
2019-05-25T10:50:59.266Z,9.23
2019-05-25T10:53:38.858Z,9.85
2019-05-25T10:56:10.527Z,9.27
2019-05-25T10:58:41.257Z,9.68
2019-05-25T11:01:12.809Z,8.98
2019-05-25T11:06:14.120Z,8.25
2019-05-25T11:08:44.704Z,7.90
2019-05-25T11:13:48.820Z,7.78
2019-05-25T11:16:19.438Z,7.72
2019-05-25T11:21:20.966Z,7.15
2019-05-25T11:34:10.060Z,7.12
2019-05-25T11:39:13.037Z,7.33
2019-05-25T11:41:46.378Z,7.10
2019-05-25T11:44:23.595Z,7.17
2019-05-25T11:46:52.173Z,6.85
2019-05-25T11:49:26.007Z,6.97
2019-05-25T11:51:58.717Z,6.72
2019-05-25T11:54:29.470Z,7.35
2019-05-25T11:57:00.034Z,7.53
2019-05-25T11:59:32.014Z,7.25
2019-05-25T12:02:04.302Z,6.58
2019-05-25T12:04:34.781Z,7.47
2019-05-25T12:07:06.802Z,6.92
2019-05-25T12:09:37.413Z,7.03
2019-05-25T12:12:10.669Z,6.72
2019-05-25T12:14:41.040Z,6.42
2019-05-25T12:17:11.411Z,6.58
2019-05-25T12:19:41.862Z,6.97
2019-05-25T12:22:13.923Z,7.10
2019-05-25T12:25:33.583Z,7.42
2019-05-25T12:27:16.796Z,7.15
2019-05-25T12:32:29.221Z,7.08
2019-05-25T12:34:49.051Z,6.47
2019-05-25T12:37:21.647Z,7.45
2019-05-25T12:39:52.407Z,6.67
2019-05-25T12:42:25.998Z,8.35
2019-05-25T12:44:58.238Z,7.20
2019-05-25T12:47:28.311Z,7.78
2019-05-25T12:49:58.939Z,7.65
2019-05-25T12:52:30.793Z,7.58
2019-05-25T12:55:01.109Z,6.60
2019-05-25T12:57:33.293Z,7.22
2019-05-25T13:00:15.359Z,7.17
2019-05-25T13:02:40.486Z,6.80
2019-05-25T13:05:10.745Z,7.37
2019-05-25T13:07:42.602Z,7.62
2019-05-25T13:10:15.834Z,7.30
2019-05-25T13:12:52.853Z,7.15
2019-05-25T13:15:26.100Z,6.62
2019-05-25T13:17:59.135Z,7.12
2019-05-25T13:20:29.566Z,6.35
2019-05-25T13:23:05.471Z,6.17
2019-05-25T13:25:40.050Z,6.33
2019-05-25T13:28:12.200Z,6.17
2019-05-25T13:30:47.694Z,6.42
2019-05-25T13:33:18.031Z,6.60
2019-05-25T13:35:50.111Z,6.53
2019-05-25T13:38:20.359Z,6.25
2019-05-25T13:40:52.708Z,6.50
2019-05-25T13:43:24.435Z,6.67
2019-05-25T13:45:56.324Z,5.95
2019-05-25T13:48:27.937Z,6.10
2019-05-25T13:50:58.417Z,6.97
2019-05-25T13:53:33.080Z,5.78
2019-05-25T13:56:04.795Z,6.53
2019-05-25T13:58:40.607Z,6.00
2019-05-25T14:01:27.500Z,6.37
2019-05-25T14:03:45.841Z,6.03
2019-05-25T14:06:23.080Z,6.83
2019-05-25T14:08:51.139Z,6.17
2019-05-25T14:11:21.513Z,6.17
2019-05-25T14:13:57.731Z,7.28
2019-05-25T14:16:28.857Z,6.47
2019-05-25T14:18:59.173Z,6.25
2019-05-25T14:21:36.242Z,6.22
2019-05-25T14:24:03.237Z,6.58
2019-05-25T14:26:33.558Z,5.75
2019-05-25T14:29:04.086Z,5.62
2019-05-25T14:31:44.952Z,5.47
2019-05-25T14:34:07.621Z,5.60
2019-05-25T14:36:40.854Z,6.45
2019-05-25T14:39:11.273Z,5.87
2019-05-25T14:41:41.653Z,5.95
2019-05-25T14:44:15.670Z,5.72
2019-05-25T14:46:43.994Z,6.03
2019-05-25T14:49:14.323Z,5.92
2019-05-25T14:51:44.746Z,6.12
2019-05-25T14:54:16.288Z,5.72
